sensor_id;sensor_type;location;lat;lon;timestamp;pressure;altitude;pressure_sealevel;temperature;humidity
28000;BME280;15328;50.860;10.562;2023-01-25T00:00:44;98264.84;;;0.03;76.85
28000;BME280;15328;50.860;10.562;2023-01-25T00:05:45;98267.63;;;0.13;76.03
28000;BME280;15328;50.860;10.562;2023-01-25T00:10:50;98259.41;;;0.06;76.17
28000;BME280;15328;50.860;10.562;2023-01-25T00:15:50;98254.06;;;0.08;76.31
28000;BME280;15328;50.860;10.562;2023-01-25T00:20:51;98257.28;;;-0.02;75.97
28000;BME280;15328;50.860;10.562;2023-01-25T00:25:57;98254.16;;;-0.07;76.81
28000;BME280;15328;50.860;10.562;2023-01-25T00:41:26;98234.28;;;-0.09;75.98
28000;BME280;15328;50.860;10.562;2023-01-25T00:46:27;98231.16;;;-0.14;76.83
28000;BME280;15328;50.860;10.562;2023-01-25T00:51:27;98236.81;;;-0.08;77.01
28000;BME280;15328;50.860;10.562;2023-01-25T00:56:27;98236.94;;;-0.22;76.32
28000;BME280;15328;50.860;10.562;2023-01-25T01:01:28;98232.94;;;-0.27;76.28
28000;BME280;15328;50.860;10.562;2023-01-25T01:06:28;98232.34;;;-0.31;77.15
28000;BME280;15328;50.860;10.562;2023-01-25T01:11:47;98232.66;;;-0.23;76.85
28000;BME280;15328;50.860;10.562;2023-01-25T01:22:44;98228.78;;;-0.30;77.29
28000;BME280;15328;50.860;10.562;2023-01-25T01:27:45;98231.28;;;-0.28;76.70
28000;BME280;15328;50.860;10.562;2023-01-25T01:32:45;98235.06;;;-0.20;76.96
28000;BME280;15328;50.860;10.562;2023-01-25T01:37:45;98236.63;;;-0.17;77.00
28000;BME280;15328;50.860;10.562;2023-01-25T01:43:03;98226.69;;;-0.25;77.00
28000;BME280;15328;50.860;10.562;2023-01-25T01:48:04;98227.22;;;-0.20;76.92
28000;BME280;15328;50.860;10.562;2023-01-25T01:53:04;98228.88;;;-0.19;77.27
28000;BME280;15328;50.860;10.562;2023-01-25T01:58:05;98237.22;;;-0.14;76.78
28000;BME280;15328;50.860;10.562;2023-01-25T02:03:07;98239.63;;;-0.11;76.90
28000;BME280;15328;50.860;10.562;2023-01-25T02:08:11;98223.25;;;-0.25;76.84
28000;BME280;15328;50.860;10.562;2023-01-25T02:13:12;98216.22;;;-0.25;76.71
28000;BME280;15328;50.860;10.562;2023-01-25T02:18:13;98217.97;;;-0.13;76.36
28000;BME280;15328;50.860;10.562;2023-01-25T02:28:24;98201.28;;;-0.23;76.03
28000;BME280;15328;50.860;10.562;2023-01-25T02:33:26;98197.72;;;-0.35;76.22
28000;BME280;15328;50.860;10.562;2023-01-25T02:38:28;98190.09;;;-0.38;76.43
28000;BME280;15328;50.860;10.562;2023-01-25T02:43:33;98185.69;;;-0.37;76.30
28000;BME280;15328;50.860;10.562;2023-01-25T02:48:34;98177.94;;;-0.39;76.69
28000;BME280;15328;50.860;10.562;2023-01-25T02:53:34;98177.00;;;-0.38;76.29
28000;BME280;15328;50.860;10.562;2023-01-25T02:58:35;98171.28;;;-0.43;76.89
28000;BME280;15328;50.860;10.562;2023-01-25T03:03:35;98166.81;;;-0.53;76.29
28000;BME280;15328;50.860;10.562;2023-01-25T03:08:36;98161.44;;;-0.39;76.14
28000;BME280;15328;50.860;10.562;2023-01-25T03:13:36;98146.50;;;-0.50;76.27
28000;BME280;15328;50.860;10.562;2023-01-25T03:18:37;98146.06;;;-0.44;75.97
28000;BME280;15328;50.860;10.562;2023-01-25T03:23:39;98128.09;;;-0.48;76.00
28000;BME280;15328;50.860;10.562;2023-01-25T03:28:40;98126.94;;;-0.44;76.30
28000;BME280;15328;50.860;10.562;2023-01-25T03:33:41;98116.56;;;-0.46;76.40
28000;BME280;15328;50.860;10.562;2023-01-25T03:38:42;98105.44;;;-0.37;76.36
28000;BME280;15328;50.860;10.562;2023-01-25T03:43:42;98097.50;;;-0.35;76.06
28000;BME280;15328;50.860;10.562;2023-01-25T03:48:42;98095.59;;;-0.33;75.90
28000;BME280;15328;50.860;10.562;2023-01-25T03:53:43;98086.94;;;-0.34;76.06
28000;BME280;15328;50.860;10.562;2023-01-25T03:58:43;98093.09;;;-0.35;76.31
28000;BME280;15328;50.860;10.562;2023-01-25T04:03:43;98087.75;;;-0.33;75.28
28000;BME280;15328;50.860;10.562;2023-01-25T04:08:44;98093.00;;;-0.33;75.92
28000;BME280;15328;50.860;10.562;2023-01-25T04:13:44;98091.53;;;-0.37;75.26
28000;BME280;15328;50.860;10.562;2023-01-25T04:18:45;98084.75;;;-0.40;74.64
28000;BME280;15328;50.860;10.562;2023-01-25T04:23:45;98077.75;;;-0.39;74.78
28000;BME280;15328;50.860;10.562;2023-01-25T04:28:45;98073.69;;;-0.43;74.42
28000;BME280;15328;50.860;10.562;2023-01-25T04:33:46;98071.50;;;-0.49;74.45
28000;BME280;15328;50.860;10.562;2023-01-25T04:38:46;98073.69;;;-0.56;74.92
28000;BME280;15328;50.860;10.562;2023-01-25T04:43:46;98073.53;;;-0.66;75.30
28000;BME280;15328;50.860;10.562;2023-01-25T04:48:47;98072.38;;;-0.62;74.57
28000;BME280;15328;50.860;10.562;2023-01-25T04:53:47;98067.53;;;-0.55;75.31
28000;BME280;15328;50.860;10.562;2023-01-25T04:58:47;98067.63;;;-0.56;74.64
28000;BME280;15328;50.860;10.562;2023-01-25T05:03:48;98072.69;;;-0.53;74.84
28000;BME280;15328;50.860;10.562;2023-01-25T05:08:48;98065.97;;;-0.57;74.36
28000;BME280;15328;50.860;10.562;2023-01-25T05:13:49;98064.00;;;-0.54;74.70
28000;BME280;15328;50.860;10.562;2023-01-25T05:18:49;98062.53;;;-0.58;75.14
28000;BME280;15328;50.860;10.562;2023-01-25T05:23:49;98058.66;;;-0.52;74.83
28000;BME280;15328;50.860;10.562;2023-01-25T05:28:50;98056.06;;;-0.52;74.84
28000;BME280;15328;50.860;10.562;2023-01-25T05:33:50;98047.75;;;-0.46;74.96
28000;BME280;15328;50.860;10.562;2023-01-25T05:38:50;98054.03;;;-0.49;74.31
28000;BME280;15328;50.860;10.562;2023-01-25T05:43:52;98059.28;;;-0.62;74.36
28000;BME280;15328;50.860;10.562;2023-01-25T05:48:52;98057.97;;;-0.67;74.55
28000;BME280;15328;50.860;10.562;2023-01-25T05:53:54;98052.41;;;-0.63;74.78
28000;BME280;15328;50.860;10.562;2023-01-25T05:58:56;98049.16;;;-0.66;74.13
28000;BME280;15328;50.860;10.562;2023-01-25T06:03:57;98061.41;;;-0.67;74.15
28000;BME280;15328;50.860;10.562;2023-01-25T06:08:57;98047.84;;;-0.72;74.33
28000;BME280;15328;50.860;10.562;2023-01-25T06:13:58;98043.88;;;-0.77;74.29
28000;BME280;15328;50.860;10.562;2023-01-25T06:18:58;98045.34;;;-0.73;74.33
28000;BME280;15328;50.860;10.562;2023-01-25T06:23:58;98049.31;;;-0.80;75.07
28000;BME280;15328;50.860;10.562;2023-01-25T06:28:59;98045.97;;;-0.82;74.92
28000;BME280;15328;50.860;10.562;2023-01-25T06:33:59;98052.97;;;-0.83;74.66
28000;BME280;15328;50.860;10.562;2023-01-25T06:39:03;98053.72;;;-0.94;75.29
28000;BME280;15328;50.860;10.562;2023-01-25T06:44:04;98056.00;;;-0.89;75.46
28000;BME280;15328;50.860;10.562;2023-01-25T06:49:04;98062.50;;;-0.95;74.75
28000;BME280;15328;50.860;10.562;2023-01-25T06:54:04;98065.00;;;-0.93;75.25
28000;BME280;15328;50.860;10.562;2023-01-25T06:59:05;98065.34;;;-0.98;74.70
28000;BME280;15328;50.860;10.562;2023-01-25T07:04:08;98059.91;;;-0.95;75.77
28000;BME280;15328;50.860;10.562;2023-01-25T07:09:12;98059.56;;;-0.90;76.06
28000;BME280;15328;50.860;10.562;2023-01-25T07:14:13;98059.03;;;-0.82;75.71
28000;BME280;15328;50.860;10.562;2023-01-25T07:19:13;98047.75;;;-0.83;75.01
28000;BME280;15328;50.860;10.562;2023-01-25T07:24:15;98035.00;;;-0.87;75.03
28000;BME280;15328;50.860;10.562;2023-01-25T07:29:16;98027.59;;;-0.94;75.07
28000;BME280;15328;50.860;10.562;2023-01-25T07:34:16;98022.03;;;-0.89;74.93
28000;BME280;15328;50.860;10.562;2023-01-25T07:39:16;98021.94;;;-0.87;75.86
28000;BME280;15328;50.860;10.562;2023-01-25T07:44:17;98021.81;;;-0.86;75.31
28000;BME280;15328;50.860;10.562;2023-01-25T07:49:17;98017.25;;;-0.95;75.54
28000;BME280;15328;50.860;10.562;2023-01-25T07:54:17;98006.47;;;-0.90;74.99
28000;BME280;15328;50.860;10.562;2023-01-25T07:59:18;97998.75;;;-0.92;75.08
28000;BME280;15328;50.860;10.562;2023-01-25T08:04:18;98009.41;;;-0.95;74.67
28000;BME280;15328;50.860;10.562;2023-01-25T08:09:19;98003.75;;;-0.89;75.17
28000;BME280;15328;50.860;10.562;2023-01-25T08:14:19;98010.13;;;-0.93;74.51
28000;BME280;15328;50.860;10.562;2023-01-25T08:19:19;98003.31;;;-0.83;74.68
28000;BME280;15328;50.860;10.562;2023-01-25T08:24:21;97993.31;;;-0.89;74.56
28000;BME280;15328;50.860;10.562;2023-01-25T08:29:21;97997.06;;;-0.93;74.41
28000;BME280;15328;50.860;10.562;2023-01-25T08:34:22;97986.22;;;-1.00;74.94
28000;BME280;15328;50.860;10.562;2023-01-25T08:39:23;97988.22;;;-1.03;74.61
28000;BME280;15328;50.860;10.562;2023-01-25T08:44:23;97987.41;;;-1.04;74.50
28000;BME280;15328;50.860;10.562;2023-01-25T08:49:25;97993.97;;;-0.98;74.31
28000;BME280;15328;50.860;10.562;2023-01-25T08:54:26;97992.72;;;-1.05;73.46
28000;BME280;15328;50.860;10.562;2023-01-25T08:59:27;97987.81;;;-1.10;73.63
28000;BME280;15328;50.860;10.562;2023-01-25T09:04:27;97969.75;;;-1.13;72.68
28000;BME280;15328;50.860;10.562;2023-01-25T09:09:28;97976.53;;;-1.10;73.28
28000;BME280;15328;50.860;10.562;2023-01-25T09:14:29;97965.84;;;-0.95;73.38
28000;BME280;15328;50.860;10.562;2023-01-25T09:19:29;97963.72;;;-0.89;73.46
28000;BME280;15328;50.860;10.562;2023-01-25T09:24:30;97956.47;;;-0.73;72.97
28000;BME280;15328;50.860;10.562;2023-01-25T09:29:30;97965.03;;;-0.71;72.35
28000;BME280;15328;50.860;10.562;2023-01-25T09:34:30;97949.13;;;-0.68;72.12
28000;BME280;15328;50.860;10.562;2023-01-25T09:39:31;97942.72;;;-0.64;72.27
28000;BME280;15328;50.860;10.562;2023-01-25T09:44:47;97950.75;;;-0.54;72.48
28000;BME280;15328;50.860;10.562;2023-01-25T09:55:15;97942.94;;;-0.43;72.39
28000;BME280;15328;50.860;10.562;2023-01-25T10:00:22;97939.59;;;-0.45;71.62
28000;BME280;15328;50.860;10.562;2023-01-25T10:05:30;97929.63;;;-0.40;71.13
28000;BME280;15328;50.860;10.562;2023-01-25T10:10:36;97942.38;;;-0.36;71.32
28000;BME280;15328;50.860;10.562;2023-01-25T10:15:41;97939.25;;;-0.41;70.85
28000;BME280;15328;50.860;10.562;2023-01-25T10:20:48;97939.16;;;-0.39;70.43
28000;BME280;15328;50.860;10.562;2023-01-25T10:25:56;97929.75;;;-0.42;70.29
28000;BME280;15328;50.860;10.562;2023-01-25T10:31:05;97916.34;;;-0.37;71.23
28000;BME280;15328;50.860;10.562;2023-01-25T10:36:08;97920.63;;;-0.36;71.12
28000;BME280;15328;50.860;10.562;2023-01-25T10:41:29;97903.91;;;-0.22;70.89
28000;BME280;15328;50.860;10.562;2023-01-25T10:52:31;97875.50;;;-0.05;70.96
28000;BME280;15328;50.860;10.562;2023-01-25T10:57:34;97871.00;;;-0.14;70.79
28000;BME280;15328;50.860;10.562;2023-01-25T11:02:39;97862.53;;;-0.06;70.86
28000;BME280;15328;50.860;10.562;2023-01-25T11:07:40;97852.69;;;-0.03;71.27
28000;BME280;15328;50.860;10.562;2023-01-25T11:12:41;97848.06;;;0.01;70.74
28000;BME280;15328;50.860;10.562;2023-01-25T11:17:41;97823.44;;;0.04;70.73
28000;BME280;15328;50.860;10.562;2023-01-25T11:22:49;97820.81;;;0.15;71.43
28000;BME280;15328;50.860;10.562;2023-01-25T11:27:49;97807.13;;;0.22;71.09
28000;BME280;15328;50.860;10.562;2023-01-25T11:32:50;97788.91;;;0.21;71.18
28000;BME280;15328;50.860;10.562;2023-01-25T11:38:13;97783.44;;;0.24;71.12
28000;BME280;15328;50.860;10.562;2023-01-25T11:54:33;97756.84;;;0.51;71.40
28000;BME280;15328;50.860;10.562;2023-01-25T11:59:51;97747.00;;;0.43;70.87
28000;BME280;15328;50.860;10.562;2023-01-25T12:21:24;97697.69;;;0.59;71.06
28000;BME280;15328;50.860;10.562;2023-01-25T12:31:44;97679.88;;;0.42;71.09
28000;BME280;15328;50.860;10.562;2023-01-25T12:36:47;97682.97;;;0.47;71.41
28000;BME280;15328;50.860;10.562;2023-01-25T12:41:54;97675.56;;;0.52;71.14
28000;BME280;15328;50.860;10.562;2023-01-25T13:08:13;97662.22;;;0.23;71.74
28000;BME280;15328;50.860;10.562;2023-01-25T13:13:26;97656.19;;;0.12;71.23
28000;BME280;15328;50.860;10.562;2023-01-25T13:23:33;97624.59;;;0.04;72.29
28000;BME280;15328;50.860;10.562;2023-01-25T13:28:40;97622.19;;;0.12;72.54
28000;BME280;15328;50.860;10.562;2023-01-25T13:33:41;97605.91;;;-0.03;72.02
28000;BME280;15328;50.860;10.562;2023-01-25T13:38:41;97605.91;;;-0.03;72.29
28000;BME280;15328;50.860;10.562;2023-01-25T13:43:44;97596.31;;;-0.14;72.68
28000;BME280;15328;50.860;10.562;2023-01-25T13:48:53;97590.59;;;-0.08;73.10
28000;BME280;15328;50.860;10.562;2023-01-25T13:53:57;97572.91;;;-0.15;72.69
28000;BME280;15328;50.860;10.562;2023-01-25T13:58:57;97569.13;;;-0.22;72.91
28000;BME280;15328;50.860;10.562;2023-01-25T14:04:00;97562.56;;;-0.17;73.11
28000;BME280;15328;50.860;10.562;2023-01-25T14:09:04;97558.16;;;-0.16;73.10
28000;BME280;15328;50.860;10.562;2023-01-25T14:14:31;97550.19;;;-0.15;73.45
28000;BME280;15328;50.860;10.562;2023-01-25T14:19:35;97550.19;;;-0.15;73.35
28000;BME280;15328;50.860;10.562;2023-01-25T14:24:35;97548.78;;;-0.19;73.38
28000;BME280;15328;50.860;10.562;2023-01-25T14:29:36;97526.19;;;-0.20;73.07
28000;BME280;15328;50.860;10.562;2023-01-25T14:34:37;97523.13;;;-0.25;73.31
28000;BME280;15328;50.860;10.562;2023-01-25T14:39:37;97519.56;;;-0.24;73.61
28000;BME280;15328;50.860;10.562;2023-01-25T14:44:38;97520.13;;;-0.20;73.40
28000;BME280;15328;50.860;10.562;2023-01-25T14:49:39;97520.72;;;-0.17;74.00
28000;BME280;15328;50.860;10.562;2023-01-25T14:54:58;97506.63;;;-0.25;73.62
28000;BME280;15328;50.860;10.562;2023-01-25T15:01:08;97501.28;;;-0.35;73.59
28000;BME280;15328;50.860;10.562;2023-01-25T15:05:48;97503.69;;;-0.43;73.60
28000;BME280;15328;50.860;10.562;2023-01-25T15:10:52;97492.84;;;-0.39;74.33
28000;BME280;15328;50.860;10.562;2023-01-25T15:16:01;97489.59;;;-0.31;73.72
28000;BME280;15328;50.860;10.562;2023-01-25T15:21:02;97475.06;;;-0.45;73.82
28000;BME280;15328;50.860;10.562;2023-01-25T15:31:27;97463.13;;;-0.38;74.24
28000;BME280;15328;50.860;10.562;2023-01-25T15:36:44;97463.59;;;-0.33;74.59
28000;BME280;15328;50.860;10.562;2023-01-25T15:41:54;97446.38;;;-0.35;74.29
28000;BME280;15328;50.860;10.562;2023-01-25T15:46:59;97441.66;;;-0.41;73.94
28000;BME280;15328;50.860;10.562;2023-01-25T15:52:00;97441.66;;;-0.41;73.65
28000;BME280;15328;50.860;10.562;2023-01-25T15:57:04;97432.72;;;-0.39;74.65
28000;BME280;15328;50.860;10.562;2023-01-25T16:02:10;97439.59;;;-0.38;74.23
28000;BME280;15328;50.860;10.562;2023-01-25T16:07:24;97438.53;;;-0.35;74.43
28000;BME280;15328;50.860;10.562;2023-01-25T16:12:26;97439.47;;;-0.36;74.55
28000;BME280;15328;50.860;10.562;2023-01-25T16:17:26;97429.72;;;-0.34;74.09
28000;BME280;15328;50.860;10.562;2023-01-25T16:22:29;97420.22;;;-0.35;73.61
28000;BME280;15328;50.860;10.562;2023-01-25T16:27:29;97426.41;;;-0.36;73.84
28000;BME280;15328;50.860;10.562;2023-01-25T16:32:34;97422.56;;;-0.32;73.54
28000;BME280;15328;50.860;10.562;2023-01-25T16:37:35;97422.84;;;-0.35;73.33
28000;BME280;15328;50.860;10.562;2023-01-25T16:42:35;97421.63;;;-0.31;73.43
28000;BME280;15328;50.860;10.562;2023-01-25T16:47:35;97426.91;;;-0.42;73.25
28000;BME280;15328;50.860;10.562;2023-01-25T16:52:36;97409.00;;;-0.47;72.93
28000;BME280;15328;50.860;10.562;2023-01-25T16:57:37;97401.66;;;-0.53;72.92
28000;BME280;15328;50.860;10.562;2023-01-25T17:02:39;97390.84;;;-0.59;72.71
28000;BME280;15328;50.860;10.562;2023-01-25T17:07:40;97387.84;;;-0.76;71.85
28000;BME280;15328;50.860;10.562;2023-01-25T17:12:40;97391.59;;;-0.69;71.72
28000;BME280;15328;50.860;10.562;2023-01-25T17:17:42;97390.53;;;-0.66;71.75
28000;BME280;15328;50.860;10.562;2023-01-25T17:22:42;97393.00;;;-0.65;71.18
28000;BME280;15328;50.860;10.562;2023-01-25T17:27:48;97393.97;;;-0.66;70.89
28000;BME280;15328;50.860;10.562;2023-01-25T17:32:48;97391.34;;;-0.66;70.73
28000;BME280;15328;50.860;10.562;2023-01-25T17:37:52;97387.34;;;-0.70;70.70
28000;BME280;15328;50.860;10.562;2023-01-25T17:42:53;97380.44;;;-0.71;70.96
28000;BME280;15328;50.860;10.562;2023-01-25T17:47:54;97371.91;;;-0.73;71.42
28000;BME280;15328;50.860;10.562;2023-01-25T17:52:54;97368.34;;;-0.72;72.07
28000;BME280;15328;50.860;10.562;2023-01-25T17:57:56;97343.06;;;-0.82;72.25
28000;BME280;15328;50.860;10.562;2023-01-25T18:02:57;97355.28;;;-0.72;72.31
28000;BME280;15328;50.860;10.562;2023-01-25T18:07:57;97350.63;;;-0.68;71.83
28000;BME280;15328;50.860;10.562;2023-01-25T18:12:58;97339.22;;;-0.67;72.13
28000;BME280;15328;50.860;10.562;2023-01-25T18:17:58;97323.66;;;-0.69;70.97
28000;BME280;15328;50.860;10.562;2023-01-25T18:22:59;97319.38;;;-0.70;71.34
28000;BME280;15328;50.860;10.562;2023-01-25T18:27:59;97320.78;;;-0.66;71.85
28000;BME280;15328;50.860;10.562;2023-01-25T18:33:00;97313.53;;;-0.62;71.14
28000;BME280;15328;50.860;10.562;2023-01-25T18:38:00;97318.88;;;-0.64;71.42
28000;BME280;15328;50.860;10.562;2023-01-25T18:43:01;97316.25;;;-0.64;71.30
28000;BME280;15328;50.860;10.562;2023-01-25T18:48:03;97313.53;;;-0.62;70.71
28000;BME280;15328;50.860;10.562;2023-01-25T18:53:05;97308.69;;;-0.67;71.10
28000;BME280;15328;50.860;10.562;2023-01-25T18:58:06;97307.09;;;-0.79;71.81
28000;BME280;15328;50.860;10.562;2023-01-25T19:03:06;97314.03;;;-0.68;71.02
28000;BME280;15328;50.860;10.562;2023-01-25T19:08:07;97303.06;;;-0.83;71.57
28000;BME280;15328;50.860;10.562;2023-01-25T19:13:07;97291.19;;;-0.87;70.96
28000;BME280;15328;50.860;10.562;2023-01-25T19:18:07;97290.25;;;-0.86;71.00
28000;BME280;15328;50.860;10.562;2023-01-25T19:23:07;97275.06;;;-0.92;71.34
28000;BME280;15328;50.860;10.562;2023-01-25T19:28:08;97294.16;;;-0.80;70.61
28000;BME280;15328;50.860;10.562;2023-01-25T19:33:08;97277.66;;;-0.81;71.31
28000;BME280;15328;50.860;10.562;2023-01-25T19:38:10;97267.56;;;-0.85;71.30
28000;BME280;15328;50.860;10.562;2023-01-25T19:43:10;97263.84;;;-0.83;71.05
28000;BME280;15328;50.860;10.562;2023-01-25T19:48:11;97250.78;;;-0.83;70.57
28000;BME280;15328;50.860;10.562;2023-01-25T19:53:11;97240.59;;;-0.86;70.75
28000;BME280;15328;50.860;10.562;2023-01-25T19:58:11;97242.13;;;-0.83;70.59
28000;BME280;15328;50.860;10.562;2023-01-25T20:03:12;97226.22;;;-0.80;70.51
28000;BME280;15328;50.860;10.562;2023-01-25T20:08:12;97226.34;;;-0.82;70.96
28000;BME280;15328;50.860;10.562;2023-01-25T20:13:12;97209.81;;;-0.82;71.37
28000;BME280;15328;50.860;10.562;2023-01-25T20:18:13;97200.09;;;-0.80;71.04
28000;BME280;15328;50.860;10.562;2023-01-25T20:23:13;97193.56;;;-0.86;71.66
28000;BME280;15328;50.860;10.562;2023-01-25T20:28:13;97180.84;;;-0.79;70.77
28000;BME280;15328;50.860;10.562;2023-01-25T20:33:14;97182.63;;;-0.80;71.63
28000;BME280;15328;50.860;10.562;2023-01-25T20:38:15;97168.88;;;-0.82;71.37
28000;BME280;15328;50.860;10.562;2023-01-25T20:43:16;97173.97;;;-0.80;71.16
28000;BME280;15328;50.860;10.562;2023-01-25T20:48:16;97174.09;;;-0.82;71.04
28000;BME280;15328;50.860;10.562;2023-01-25T20:53:17;97172.69;;;-0.86;71.36
28000;BME280;15328;50.860;10.562;2023-01-25T20:58:17;97186.97;;;-0.90;71.20
28000;BME280;15328;50.860;10.562;2023-01-25T21:03:17;97184.72;;;-0.95;70.82
28000;BME280;15328;50.860;10.562;2023-01-25T21:08:18;97183.59;;;-1.02;71.36
28000;BME280;15328;50.860;10.562;2023-01-25T21:13:19;97177.09;;;-1.07;70.92
28000;BME280;15328;50.860;10.562;2023-01-25T21:18:20;97181.25;;;-1.05;70.42
28000;BME280;15328;50.860;10.562;2023-01-25T21:23:20;97186.25;;;-1.13;70.61
28000;BME280;15328;50.860;10.562;2023-01-25T21:28:20;97172.00;;;-1.30;70.67
28000;BME280;15328;50.860;10.562;2023-01-25T21:33:21;97169.16;;;-1.38;71.40
28000;BME280;15328;50.860;10.562;2023-01-25T21:38:21;97154.56;;;-1.29;70.55
28000;BME280;15328;50.860;10.562;2023-01-25T21:43:24;97138.06;;;-1.30;70.87
28000;BME280;15328;50.860;10.562;2023-01-25T21:48:24;97148.94;;;-1.25;71.33
28000;BME280;15328;50.860;10.562;2023-01-25T21:53:46;97138.63;;;-1.26;70.10
28000;BME280;15328;50.860;10.562;2023-01-25T21:58:47;97131.25;;;-1.21;71.43
28000;BME280;15328;50.860;10.562;2023-01-25T22:03:51;97121.63;;;-1.20;70.93
28000;BME280;15328;50.860;10.562;2023-01-25T22:08:51;97108.13;;;-1.26;71.04
28000;BME280;15328;50.860;10.562;2023-01-25T22:13:52;97115.00;;;-1.25;71.35
28000;BME280;15328;50.860;10.562;2023-01-25T22:18:53;97100.56;;;-1.29;71.23
28000;BME280;15328;50.860;10.562;2023-01-25T22:23:54;97094.13;;;-1.25;71.26
28000;BME280;15328;50.860;10.562;2023-01-25T22:28:57;97091.38;;;-1.23;71.38
28000;BME280;15328;50.860;10.562;2023-01-25T22:33:58;97083.28;;;-1.20;71.02
28000;BME280;15328;50.860;10.562;2023-01-25T22:38:58;97093.91;;;-1.12;71.44
28000;BME280;15328;50.860;10.562;2023-01-25T22:43:59;97092.34;;;-1.24;71.27
28000;BME280;15328;50.860;10.562;2023-01-25T22:48:59;97092.59;;;-1.27;71.05
28000;BME280;15328;50.860;10.562;2023-01-25T22:53:59;97092.47;;;-1.46;70.45
28000;BME280;15328;50.860;10.562;2023-01-25T22:59:00;97085.41;;;-1.56;70.96
28000;BME280;15328;50.860;10.562;2023-01-25T23:04:01;97078.78;;;-1.60;71.16
28000;BME280;15328;50.860;10.562;2023-01-25T23:09:04;97072.78;;;-1.50;70.80
28000;BME280;15328;50.860;10.562;2023-01-25T23:14:07;97069.22;;;-1.49;71.02
28000;BME280;15328;50.860;10.562;2023-01-25T23:19:26;97067.50;;;-1.39;70.56
28000;BME280;15328;50.860;10.562;2023-01-25T23:24:26;97066.31;;;-1.35;71.03
28000;BME280;15328;50.860;10.562;2023-01-25T23:29:27;97055.19;;;-1.58;70.39
28000;BME280;15328;50.860;10.562;2023-01-25T23:34:27;97055.75;;;-1.54;70.78
28000;BME280;15328;50.860;10.562;2023-01-25T23:39:33;97057.00;;;-1.49;71.05
28000;BME280;15328;50.860;10.562;2023-01-25T23:44:33;97059.94;;;-1.42;71.44
28000;BME280;15328;50.860;10.562;2023-01-25T23:49:34;97049.69;;;-1.55;71.32
28000;BME280;15328;50.860;10.562;2023-01-25T23:54:34;97049.56;;;-1.74;72.77
28000;BME280;15328;50.860;10.562;2023-01-25T23:59:34;97037.22;;;-1.72;71.74
